createdAt,value
2022-09-12T00:00:00.308Z,990.8323
2022-09-12T00:01:00.552Z,990.883
2022-09-12T00:02:00.661Z,990.7823
2022-09-12T00:03:00.742Z,990.8542
2022-09-12T00:04:00.890Z,990.7245
2022-09-12T00:05:01.055Z,990.7611
2022-09-12T00:06:01.191Z,990.8627
2022-09-12T00:07:00.351Z,990.798
2022-09-12T00:08:00.488Z,990.7114
2022-09-12T00:09:00.643Z,990.6468
2022-09-12T00:10:00.780Z,990.6975
2022-09-12T00:11:00.918Z,990.8925
2022-09-12T00:12:01.061Z,990.764
2022-09-12T00:13:01.201Z,990.6635
2022-09-12T00:14:00.359Z,990.6136
2022-09-12T00:15:00.530Z,990.5709
2022-09-12T00:16:00.643Z,990.6069
2022-09-12T00:17:00.818Z,990.7081
2022-09-12T00:18:00.961Z,990.6077
2022-09-12T00:19:01.114Z,990.5361
2022-09-12T00:21:00.374Z,990.6881
2022-09-12T00:22:00.533Z,990.5658
2022-09-12T00:23:00.649Z,990.4096
2022-09-12T00:24:00.797Z,990.5668
2022-09-12T00:25:00.950Z,990.5954
2022-09-12T00:26:01.085Z,990.5666
2022-09-12T00:27:01.251Z,990.5369
2022-09-12T00:28:00.390Z,990.4304
2022-09-12T00:29:00.528Z,990.5377
2022-09-12T00:30:00.676Z,990.5957
2022-09-12T00:31:00.816Z,990.4256
2022-09-12T00:32:01.049Z,990.5529
2022-09-12T00:33:01.110Z,990.4176
2022-09-12T00:34:00.269Z,990.5449
2022-09-12T00:35:00.404Z,990.5022
2022-09-12T00:36:00.547Z,990.4027
2022-09-12T00:37:00.724Z,990.3669
2022-09-12T00:38:00.847Z,990.5666
2022-09-12T00:39:00.992Z,990.4027
2022-09-12T00:40:01.233Z,990.4035
2022-09-12T00:41:00.277Z,990.4176
2022-09-12T00:42:00.439Z,990.4184
2022-09-12T00:43:00.582Z,990.4331
2022-09-12T00:44:00.724Z,990.3754
2022-09-12T00:45:00.865Z,990.34
2022-09-12T00:46:01.051Z,990.4902
2022-09-12T00:47:01.186Z,990.3565
2022-09-12T00:48:00.298Z,990.4144
2022-09-12T00:49:00.448Z,990.5356
2022-09-12T00:50:00.591Z,990.3357
2022-09-12T00:51:00.749Z,990.2922
2022-09-12T00:52:00.899Z,990.3926
2022-09-12T00:53:01.067Z,990.5417
2022-09-12T00:54:01.185Z,990.2992
2022-09-12T00:55:00.350Z,990.4433
2022-09-12T00:56:00.467Z,990.3934
2022-09-12T00:57:00.625Z,990.2285
2022-09-12T00:58:00.791Z,990.3008
2022-09-12T00:59:00.915Z,990.2797
2022-09-12T01:00:01.068Z,990.4099
2022-09-12T01:01:01.366Z,990.3523
2022-09-12T01:02:00.515Z,990.3166
2022-09-12T01:03:00.536Z,990.3891
2022-09-12T01:04:00.666Z,990.4467
2022-09-12T01:05:00.821Z,990.3243
2022-09-12T01:06:00.956Z,990.3096
2022-09-12T01:07:01.096Z,990.5313
2022-09-12T01:08:01.263Z,990.3961
2022-09-12T01:09:00.400Z,990.3672
2022-09-12T01:10:00.538Z,990.3027
2022-09-12T01:11:00.681Z,990.3176
2022-09-12T01:12:00.831Z,990.2379
2022-09-12T01:13:00.997Z,990.2315
2022-09-12T01:14:01.123Z,990.3905
2022-09-12T01:15:00.278Z,990.4062
2022-09-12T01:16:00.455Z,990.3278
2022-09-12T01:17:00.576Z,990.443
2022-09-12T01:18:00.715Z,990.4142
2022-09-12T01:19:00.874Z,990.299
2022-09-12T01:20:01.021Z,990.3278
2022-09-12T01:21:01.196Z,990.4142
2022-09-12T01:22:00.310Z,990.3436
2022-09-12T01:23:00.462Z,990.2423
2022-09-12T01:24:00.600Z,990.4142
2022-09-12T01:25:00.754Z,990.1847
2022-09-12T01:26:00.918Z,990.3276
2022-09-12T01:27:01.049Z,990.3566
2022-09-12T01:28:01.198Z,990.5203
2022-09-12T01:29:00.332Z,990.3276
2022-09-12T01:30:00.476Z,990.3217
2022-09-12T01:31:00.660Z,990.415
2022-09-12T01:32:00.802Z,990.2641
2022-09-12T01:33:00.925Z,990.3574
2022-09-12T01:34:01.083Z,990.2284
2022-09-12T01:35:01.222Z,990.3436
2022-09-12T01:36:00.384Z,990.3582
2022-09-12T01:37:00.519Z,990.3007
2022-09-12T01:38:00.661Z,990.3007
2022-09-12T01:39:00.810Z,990.2796
2022-09-12T01:40:00.987Z,990.3809
2022-09-12T01:41:01.123Z,990.338
2022-09-12T01:42:01.239Z,990.2231
2022-09-12T01:43:00.382Z,990.2228
2022-09-12T01:44:00.535Z,990.1595
2022-09-12T01:45:00.678Z,990.3897
2022-09-12T01:46:00.922Z,990.3897
2022-09-12T01:47:00.975Z,990.2746
2022-09-12T01:48:01.127Z,990.3412
2022-09-12T01:49:00.261Z,990.2986
2022-09-12T01:50:00.420Z,990.3421
2022-09-12T01:51:00.584Z,990.2629
2022-09-12T01:52:00.713Z,990.2341
2022-09-12T01:53:00.844Z,990.228
2022-09-12T01:54:00.997Z,990.2717
2022-09-12T01:55:01.136Z,990.3581
2022-09-12T01:56:00.294Z,990.3719
2022-09-12T01:57:00.436Z,990.3719
2022-09-12T01:58:00.593Z,990.113
2022-09-12T01:59:00.741Z,990.1982
2022-09-12T02:00:00.903Z,990.3213
2022-09-12T02:01:01.090Z,990.3938
2022-09-12T02:02:01.223Z,990.3005
2022-09-12T02:03:00.337Z,990.3362
2022-09-12T02:04:00.479Z,990.3005
2022-09-12T02:05:00.628Z,990.243
2022-09-12T02:06:00.795Z,990.1854
2022-09-12T02:07:00.927Z,990.3144
2022-09-12T02:08:01.068Z,990.228
2022-09-12T02:09:01.208Z,990.1279
2022-09-12T02:10:00.355Z,990.1993
2022-09-12T02:11:00.517Z,990.2637
2022-09-12T02:12:00.635Z,990.1486
2022-09-12T02:13:00.793Z,990.1993
2022-09-12T02:14:00.935Z,990.1199
2022-09-12T02:15:01.089Z,990.0983
2022-09-12T02:16:01.253Z,990.0407
2022-09-12T02:17:00.403Z,990.1271
2022-09-12T02:18:00.541Z,990.1052
2022-09-12T02:19:00.684Z,990.1625
2022-09-12T02:20:00.835Z,990.1337
2022-09-12T02:21:00.974Z,990.1913
2022-09-12T02:22:01.138Z,990.2203
2022-09-12T02:23:00.264Z,990.1913
2022-09-12T02:24:00.404Z,990.1558
2022-09-12T02:25:00.563Z,990.1854
2022-09-12T02:26:00.712Z,990.2499
2022-09-12T02:27:00.869Z,990.243
2022-09-12T02:28:00.995Z,990.1636
2022-09-12T02:29:01.147Z,990.1367
2022-09-12T02:30:00.299Z,990.2665
2022-09-12T02:31:00.497Z,990.2518
2022-09-12T02:32:00.602Z,990.2665
2022-09-12T02:33:00.753Z,990.2142
2022-09-12T02:34:00.892Z,990.2717
2022-09-12T02:35:01.046Z,990.3005
2022-09-12T02:36:01.217Z,990.3293
2022-09-12T02:37:00.356Z,990.3868
2022-09-12T02:38:00.493Z,990.3788
2022-09-12T02:39:00.645Z,990.3064
2022-09-12T02:40:00.881Z,990.2925
2022-09-12T02:41:00.971Z,990.2142
2022-09-12T02:42:01.099Z,990.2944
2022-09-12T02:43:01.233Z,990.2872
2022-09-12T02:44:00.375Z,990.2944
2022-09-12T02:45:00.514Z,990.2944
2022-09-12T02:46:00.727Z,990.2944
2022-09-12T02:47:00.817Z,990.4931
2022-09-12T02:48:00.956Z,990.2872
2022-09-12T02:49:01.097Z,990.2814
2022-09-12T02:50:01.244Z,990.1879
2022-09-12T02:51:00.403Z,990.1235
2022-09-12T02:52:00.551Z,990.1157
2022-09-12T02:53:00.690Z,990.1367
2022-09-12T02:54:00.838Z,990.1655
2022-09-12T02:55:00.986Z,990.2665
2022-09-12T02:56:01.133Z,990.08
2022-09-12T02:57:00.298Z,990.1732
2022-09-12T02:58:00.437Z,990.2377
2022-09-12T02:59:00.588Z,990.0363
2022-09-12T03:00:00.731Z,990.0145
2022-09-12T03:01:00.903Z,990.0504
2022-09-12T03:02:01.122Z,990.1157
2022-09-12T03:03:01.207Z,990.1514
2022-09-12T03:04:00.314Z,990.0504
2022-09-12T03:05:00.474Z,990.1157
2022-09-12T03:06:00.601Z,990.1732
2022-09-12T03:07:00.757Z,990.0939
2022-09-12T03:08:00.936Z,990.0007
2022-09-12T03:09:01.057Z,990.0659
2022-09-12T03:10:01.209Z,990.0095
2022-09-12T03:11:00.351Z,990.0889
2022-09-12T03:12:00.528Z,989.9739
2022-09-12T03:13:00.646Z,990.2465
2022-09-12T03:14:00.790Z,990.1027
2022-09-12T03:15:00.945Z,990.2822
2022-09-12T03:16:01.117Z,990.1027
2022-09-12T03:17:01.261Z,990.1384
2022-09-12T03:18:00.375Z,990.0383
2022-09-12T03:19:00.531Z,990.1959
2022-09-12T03:20:00.710Z,990.0164
2022-09-12T03:21:00.825Z,990.1752
2022-09-12T03:22:00.976Z,989.9888
2022-09-12T03:23:01.171Z,990.3339
2022-09-12T03:24:00.276Z,990.3267
2022-09-12T03:25:00.413Z,990.2982
2022-09-12T03:26:00.547Z,990.1912
2022-09-12T03:27:00.687Z,990.2625
2022-09-12T03:28:00.857Z,990.09
2022-09-12T03:29:00.988Z,990.3339
2022-09-12T03:30:01.126Z,990.1395
2022-09-12T03:31:00.366Z,990.1177
2022-09-12T03:32:00.422Z,990.2753
2022-09-12T03:33:00.598Z,990.1177
2022-09-12T03:34:00.722Z,990.189
2022-09-12T03:35:00.883Z,990.0521
2022-09-12T03:36:01.024Z,990.0809
2022-09-12T03:37:01.172Z,990.0662
2022-09-12T03:38:00.334Z,989.9221
2022-09-12T03:39:00.461Z,989.965
2022-09-12T03:40:00.662Z,990.0582
2022-09-12T03:41:00.758Z,990.0007
2022-09-12T03:42:00.904Z,990.0939
2022-09-12T03:43:01.072Z,989.9075
2022-09-12T03:44:01.224Z,990.0582
2022-09-12T03:45:00.342Z,990.0225
2022-09-12T03:46:00.539Z,990.0729
2022-09-12T03:47:00.639Z,989.9075
2022-09-12T03:48:00.785Z,990.1157
2022-09-12T03:49:00.949Z,989.7924
2022-09-12T03:50:01.088Z,989.9282
2022-09-12T03:51:01.234Z,989.8341
2022-09-12T03:52:00.380Z,990.1279
2022-09-12T03:53:00.531Z,990.0128
2022-09-12T03:54:00.690Z,990.0128
2022-09-12T03:55:00.848Z,989.984
2022-09-12T03:56:00.984Z,989.9257
2022-09-12T03:57:01.134Z,989.8609
2022-09-12T03:58:00.273Z,990.0189
2022-09-12T03:59:00.431Z,990.1625
2022-09-12T04:00:00.589Z,989.8462
2022-09-12T04:01:00.763Z,989.9257
2022-09-12T04:02:00.863Z,989.9832
2022-09-12T04:03:01.010Z,990.0474
2022-09-12T04:04:01.156Z,990.0607
2022-09-12T04:05:00.331Z,990.0167
2022-09-12T04:06:00.460Z,990.0742
2022-09-12T04:07:00.604Z,990.0167
2022-09-12T04:08:00.760Z,989.9945
2022-09-12T04:09:00.912Z,990.088
2022-09-12T04:10:01.088Z,990.088
2022-09-12T04:11:01.206Z,989.9729
2022-09-12T04:12:00.360Z,990.0155
2022-09-12T04:13:00.494Z,990.1595
2022-09-12T04:14:00.657Z,990.0809
2022-09-12T04:15:00.821Z,989.9384
2022-09-12T04:16:00.952Z,990.0684
2022-09-12T04:17:01.103Z,990.0684
2022-09-12T04:18:05.602Z,990.0762
2022-09-12T04:19:00.379Z,989.9979
2022-09-12T04:20:00.541Z,989.9553
2022-09-12T04:21:00.710Z,990.0355
2022-09-12T04:22:00.832Z,989.9788
2022-09-12T04:23:00.986Z,990.0007
2022-09-12T04:24:01.131Z,990.1376
2022-09-12T04:25:00.287Z,990.2385
2022-09-12T04:26:00.442Z,990.0809
2022-09-12T04:27:02.853Z,990.2247
2022-09-12T04:28:00.719Z,990.0452
2022-09-12T04:29:00.856Z,990.2465
2022-09-12T04:30:01.018Z,990.0314
2022-09-12T04:31:01.232Z,990.0176
2022-09-12T04:32:00.300Z,990.09
2022-09-12T04:33:02.230Z,990.1912
2022-09-12T04:34:00.596Z,990.2553
2022-09-12T04:35:00.732Z,990.1912
2022-09-12T04:36:00.911Z,990.106
2022-09-12T04:37:01.032Z,990.0704
2022-09-12T04:38:01.174Z,990.3004
2022-09-12T04:39:00.311Z,990.0991
2022-09-12T04:40:00.570Z,990.0129
2022-09-12T04:41:00.618Z,990.2553
2022-09-12T04:42:00.766Z,990.3339
2022-09-12T04:43:00.904Z,990.0969
2022-09-12T04:44:01.056Z,990.0842
2022-09-12T04:45:01.200Z,990.2429
2022-09-12T04:46:00.381Z,990.0931
2022-09-12T04:47:00.527Z,990.2594
2022-09-12T04:48:00.671Z,990.0582
2022-09-12T04:49:00.808Z,990.1732
2022-09-12T04:50:00.960Z,990.2307
2022-09-12T04:51:01.115Z,990.0295
2022-09-12T04:52:00.278Z,990.0939
2022-09-12T04:53:00.438Z,990.0502
2022-09-12T04:54:00.566Z,990.2802
2022-09-12T04:55:00.714Z,990.2594
2022-09-12T04:56:00.865Z,990.2019
2022-09-12T04:57:01.012Z,990.1671
2022-09-12T04:58:01.170Z,990.1392
2022-09-12T04:59:00.306Z,990.0533
2022-09-12T05:00:05.115Z,990.1395
2022-09-12T05:01:00.636Z,990.0817
2022-09-12T05:02:00.897Z,990.0878
2022-09-12T05:03:00.911Z,990.087
2022-09-12T05:04:01.036Z,990.0931
2022-09-12T05:05:01.197Z,990.0068
2022-09-12T05:06:00.331Z,990.0779
2022-09-12T05:07:00.484Z,990.0563
2022-09-12T05:08:00.659Z,989.9988
2022-09-12T05:09:00.766Z,990.0997
2022-09-12T05:10:00.905Z,990.0997
2022-09-12T05:11:01.066Z,990.208
2022-09-12T05:12:05.268Z,990.0502
2022-09-12T05:13:00.374Z,990.0356
2022-09-12T05:14:00.539Z,990.0129
2022-09-12T05:15:00.657Z,990.1483
2022-09-12T05:16:00.787Z,990.1912
2022-09-12T05:17:00.992Z,990.0253
2022-09-12T05:18:01.108Z,990.0682
2022-09-12T05:19:01.239Z,990.0245
2022-09-12T05:20:00.382Z,990.2465
2022-09-12T05:21:00.531Z,990.0245
2022-09-12T05:22:00.678Z,989.9382
2022-09-12T05:23:00.859Z,990.0601
2022-09-12T05:24:00.986Z,990.3696
2022-09-12T05:25:01.135Z,990.4052
2022-09-12T05:26:00.277Z,990.2039
2022-09-12T05:27:00.427Z,990.1752
2022-09-12T05:28:00.604Z,990.304
2022-09-12T05:29:00.732Z,990.2822
2022-09-12T05:30:00.878Z,990.2098
2022-09-12T05:31:01.074Z,990.3251
2022-09-12T05:32:01.177Z,990.1522
2022-09-12T05:33:00.343Z,990.3536
2022-09-12T05:34:00.466Z,990.1522
2022-09-12T05:35:00.611Z,990.1235
2022-09-12T05:36:00.747Z,990.2098
2022-09-12T05:37:00.923Z,990.1376
2022-09-12T05:38:01.041Z,990.2952
2022-09-12T05:39:01.183Z,990.2734
2022-09-12T05:40:00.390Z,990.2446
2022-09-12T05:41:00.490Z,990.2665
2022-09-12T05:42:00.658Z,990.2089
2022-09-12T05:43:00.786Z,990.2883
2022-09-12T05:44:00.940Z,990.2595
2022-09-12T05:45:01.085Z,990.2883
2022-09-12T05:46:01.244Z,990.324
2022-09-12T05:47:00.407Z,990.2952
2022-09-12T05:48:00.528Z,990.2089
2022-09-12T05:49:00.675Z,990.1802
2022-09-12T05:50:00.833Z,990.2585
2022-09-12T05:51:00.982Z,990.2717
2022-09-12T05:52:01.150Z,990.1854
2022-09-12T05:53:00.279Z,990.3074
2022-09-12T05:54:00.425Z,990.1486
2022-09-12T05:55:00.571Z,990.4137
2022-09-12T05:56:00.727Z,990.2411
2022-09-12T05:57:00.887Z,990.5121
2022-09-12T05:58:01.004Z,990.3908
2022-09-12T05:59:01.153Z,990.3332
2022-09-12T06:00:00.299Z,990.4196
2022-09-12T06:01:00.447Z,990.4046
2022-09-12T06:02:00.673Z,990.5536
2022-09-12T06:03:00.733Z,990.4393
2022-09-12T06:04:00.948Z,990.5744
2022-09-12T06:05:01.022Z,990.4244
2022-09-12T06:06:01.173Z,990.4942
2022-09-12T06:07:00.350Z,990.5153
2022-09-12T06:08:00.461Z,990.6731
2022-09-12T06:09:00.616Z,990.6654
2022-09-12T06:10:00.774Z,990.5494
2022-09-12T06:11:02.420Z,990.5561
2022-09-12T06:12:01.107Z,990.5702
2022-09-12T06:13:01.228Z,990.6129
2022-09-12T06:14:00.371Z,990.5334
2022-09-12T06:15:00.519Z,990.6121
2022-09-12T06:16:00.665Z,990.7764
2022-09-12T06:17:00.871Z,990.8551
2022-09-12T06:18:00.961Z,990.5958
2022-09-12T06:19:01.113Z,990.6892
2022-09-12T06:20:00.259Z,990.6385
2022-09-12T06:21:00.403Z,990.4939
2022-09-12T06:22:00.576Z,990.6516
2022-09-12T06:23:00.700Z,990.4851
2022-09-12T06:24:00.850Z,990.5855
2022-09-12T06:25:01.011Z,990.4134
2022-09-12T06:26:01.146Z,990.6482
2022-09-12T06:27:00.328Z,990.5895
2022-09-12T06:28:00.444Z,990.5887
2022-09-12T06:29:00.594Z,990.5081
2022-09-12T06:30:00.735Z,990.4296
2022-09-12T06:31:00.947Z,990.5997
2022-09-12T06:32:01.052Z,990.5989
2022-09-12T06:33:01.174Z,990.4128
2022-09-12T06:34:00.313Z,990.604
2022-09-12T06:35:00.489Z,990.3454
2022-09-12T06:36:00.639Z,990.5014
2022-09-12T06:37:00.807Z,990.4232
2022-09-12T06:38:00.933Z,990.5148
2022-09-12T06:39:01.082Z,990.4082
2022-09-12T06:40:02.022Z,990.2928
2022-09-12T06:41:00.356Z,990.5359
2022-09-12T06:42:00.528Z,990.4082
2022-09-12T06:43:00.681Z,990.4082
2022-09-12T06:44:00.811Z,990.507
2022-09-12T06:45:00.948Z,990.3716
2022-09-12T06:46:01.152Z,990.4918
2022-09-12T06:48:00.390Z,990.4141
2022-09-12T06:49:00.516Z,990.5207
2022-09-12T06:50:00.669Z,990.4429
2022-09-12T06:51:00.809Z,990.4988
2022-09-12T06:52:00.951Z,990.5704
2022-09-12T06:53:01.125Z,990.5704
2022-09-12T06:54:01.248Z,990.4061
2022-09-12T06:55:00.388Z,990.5335
2022-09-12T06:56:00.545Z,990.5915
2022-09-12T06:57:00.700Z,990.6343
2022-09-12T06:58:00.865Z,990.5185
2022-09-12T06:59:00.994Z,990.475
2022-09-12T07:00:01.147Z,990.4819
2022-09-12T07:01:00.323Z,990.5316
2022-09-12T07:02:00.508Z,990.5747
2022-09-12T07:03:00.596Z,990.5677
2022-09-12T07:04:00.725Z,990.48
2022-09-12T07:05:00.869Z,990.5736
2022-09-12T07:06:01.017Z,990.53
2022-09-12T07:07:01.172Z,990.4865
2022-09-12T07:08:00.357Z,990.6587
2022-09-12T07:09:00.467Z,990.572
2022-09-12T07:10:00.593Z,990.5573
2022-09-12T07:11:00.738Z,990.5929
2022-09-12T07:12:00.886Z,990.6718
2022-09-12T07:13:01.042Z,990.5263
2022-09-12T07:14:01.166Z,990.5113
2022-09-12T07:15:00.330Z,990.7056
2022-09-12T07:16:00.463Z,990.5603
2022-09-12T07:17:00.624Z,990.6968
2022-09-12T07:18:00.757Z,990.624
2022-09-12T07:19:00.910Z,990.6085
2022-09-12T07:20:01.102Z,990.6074
2022-09-12T07:21:01.192Z,990.6064
2022-09-12T07:22:00.343Z,990.5269
2022-09-12T07:23:00.497Z,990.7355
2022-09-12T07:24:00.661Z,990.5965
2022-09-12T07:25:00.831Z,990.5885
2022-09-12T07:26:00.957Z,990.7682
2022-09-12T07:27:01.102Z,990.6158
2022-09-12T07:28:01.243Z,990.5711
2022-09-12T07:29:25.260Z,990.5414
2022-09-12T07:30:00.559Z,990.5542
2022-09-12T07:31:00.718Z,990.6473
2022-09-12T07:32:00.837Z,990.703
2022-09-12T07:33:01.002Z,990.6873
2022-09-12T07:34:01.131Z,990.5706
2022-09-12T07:35:00.301Z,990.6417
2022-09-12T07:36:00.432Z,990.5471
2022-09-12T07:37:00.582Z,990.6546
2022-09-12T07:38:00.726Z,990.8144
2022-09-12T07:39:00.875Z,990.6696
2022-09-12T07:40:01.084Z,990.7488
2022-09-12T07:41:01.191Z,990.6898
2022-09-12T07:42:00.334Z,990.5881
2022-09-12T07:43:00.465Z,990.7539
2022-09-12T07:44:00.612Z,990.7658
2022-09-12T07:45:00.752Z,990.7352
2022-09-12T07:46:01.104Z,990.7642
2022-09-12T07:47:01.046Z,990.6421
2022-09-12T07:48:01.193Z,990.6421
2022-09-12T07:49:00.347Z,990.6789
2022-09-12T07:50:00.494Z,990.7228
2022-09-12T07:51:00.654Z,990.6219
2022-09-12T07:52:00.804Z,990.5999
2022-09-12T07:53:00.948Z,990.5779
2022-09-12T07:54:01.094Z,990.5629
2022-09-12T07:55:01.231Z,990.845
2022-09-12T07:56:00.373Z,990.6773
2022-09-12T07:57:00.539Z,990.6333
2022-09-12T07:58:00.665Z,990.4466
2022-09-12T07:59:00.814Z,990.7565
2022-09-12T08:00:00.955Z,990.5895
2022-09-12T08:01:01.173Z,990.6325
2022-09-12T08:02:00.270Z,990.5087
2022-09-12T08:03:00.391Z,990.5957
2022-09-12T08:04:00.543Z,990.6666
2022-09-12T08:05:00.712Z,990.5557
2022-09-12T08:06:00.838Z,990.6619
2022-09-12T08:07:00.981Z,990.6901
2022-09-12T08:08:01.114Z,990.5281
2022-09-12T08:09:00.264Z,990.5053
2022-09-12T08:10:00.431Z,990.6133
2022-09-12T08:11:00.572Z,990.3692
2022-09-12T08:12:00.736Z,990.4492
2022-09-12T08:13:00.871Z,990.5273
2022-09-12T08:14:01.016Z,990.4905
2022-09-12T08:15:01.189Z,990.4754
2022-09-12T08:16:00.363Z,990.5251
2022-09-12T08:17:00.444Z,990.5373
2022-09-12T08:18:00.587Z,990.4918
2022-09-12T08:19:00.737Z,990.5921
2022-09-12T08:20:00.897Z,990.555
2022-09-12T08:21:01.033Z,990.5981
2022-09-12T08:22:01.179Z,990.6271
2022-09-12T08:23:00.327Z,990.7275
2022-09-12T08:24:00.468Z,990.529
2022-09-12T08:25:00.630Z,990.4349
2022-09-12T08:26:05.319Z,990.6065
2022-09-12T08:27:00.929Z,990.39
2022-09-12T08:28:01.048Z,990.5403
2022-09-12T08:29:01.210Z,990.3803
2022-09-12T08:30:00.348Z,990.4293
2022-09-12T08:31:00.526Z,990.6952
2022-09-12T08:32:00.659Z,990.6149
2022-09-12T08:33:00.790Z,990.637
2022-09-12T08:34:00.945Z,990.4274
2022-09-12T08:35:01.088Z,990.6422
2022-09-12T08:36:01.236Z,990.3083
2022-09-12T08:37:00.390Z,990.494
2022-09-12T08:38:00.527Z,990.4948
2022-09-12T08:39:00.756Z,990.3424
2022-09-12T08:40:00.965Z,990.4368
2022-09-12T08:41:00.974Z,990.5522
2022-09-12T08:42:01.203Z,990.508
2022-09-12T08:43:01.258Z,990.6314
2022-09-12T08:44:00.404Z,990.6384
2022-09-12T08:45:00.568Z,990.6527
2022-09-12T08:46:00.732Z,990.399
2022-09-12T08:47:00.852Z,990.5414
2022-09-12T08:48:00.988Z,990.5544
2022-09-12T08:49:01.143Z,990.5889
2022-09-12T08:50:00.283Z,990.3779
2022-09-12T08:51:00.440Z,990.3129
2022-09-12T08:52:00.588Z,990.5277
2022-09-12T08:53:00.715Z,990.5258
2022-09-12T08:54:00.873Z,990.4184
2022-09-12T08:55:01.050Z,990.4033
2022-09-12T08:56:01.174Z,990.3954
2022-09-12T08:57:00.320Z,990.3663
2022-09-12T08:58:00.472Z,990.3158
2022-09-12T08:59:00.610Z,990.5841
2022-09-12T09:00:00.786Z,990.331
2022-09-12T09:01:00.907Z,990.4246
2022-09-12T09:02:01.150Z,990.5523
2022-09-12T09:03:01.195Z,990.4068
2022-09-12T09:04:00.352Z,990.4351
2022-09-12T09:05:00.509Z,990.3687
2022-09-12T09:06:00.669Z,990.3948
2022-09-12T09:07:00.806Z,990.594
2022-09-12T09:08:00.950Z,990.2505
2022-09-12T09:09:01.104Z,990.3361
2022-09-12T09:10:01.249Z,990.3088
2022-09-12T09:11:00.414Z,990.5126
2022-09-12T09:12:00.539Z,990.3335
2022-09-12T09:13:00.692Z,990.5215
2022-09-12T09:14:04.891Z,990.3759
2022-09-12T09:15:00.986Z,990.2808
2022-09-12T09:16:01.285Z,990.3462
2022-09-12T09:17:00.273Z,990.2653
2022-09-12T09:18:00.422Z,990.2213
2022-09-12T09:19:00.583Z,990.4026
2022-09-12T09:20:00.731Z,990.3072
2022-09-12T09:21:00.896Z,990.2488
2022-09-12T09:22:01.025Z,990.2555
2022-09-12T09:23:01.165Z,990.2505
2022-09-12T09:24:00.306Z,990.207
2022-09-12T09:25:00.455Z,990.2505
2022-09-12T09:26:00.628Z,990.2797
2022-09-12T09:27:00.760Z,990.2275
2022-09-12T09:28:00.903Z,990.2918
2022-09-12T09:29:01.089Z,990.3412
2022-09-12T09:30:01.202Z,990.1862
2022-09-12T09:31:00.411Z,990.2444
2022-09-12T09:32:00.492Z,990.1708
2022-09-12T09:33:00.652Z,990.2506
2022-09-12T09:34:00.774Z,990.2284
2022-09-12T09:35:00.931Z,990.4045
2022-09-12T09:36:01.080Z,990.4196
2022-09-12T09:37:01.238Z,990.2003
2022-09-12T09:38:00.411Z,990.193
2022-09-12T09:39:00.526Z,990.2958
2022-09-12T09:40:00.698Z,990.2587
2022-09-12T09:41:00.816Z,990.2
2022-09-12T09:42:00.976Z,990.2292
2022-09-12T09:43:01.145Z,990.2292
2022-09-12T09:44:00.327Z,990.1708
2022-09-12T09:45:00.408Z,990.2798
2022-09-12T09:46:00.663Z,990.1629
2022-09-12T09:47:00.711Z,990.1708
2022-09-12T09:48:00.880Z,990.3031
2022-09-12T09:49:02.047Z,990.3474
2022-09-12T09:50:01.150Z,990.2382
2022-09-12T09:51:00.293Z,990.2382
2022-09-12T09:52:00.748Z,990.1809
2022-09-12T09:53:00.615Z,990.1963
2022-09-12T09:54:00.736Z,990.2115
2022-09-12T09:55:00.898Z,990.1609
2022-09-12T09:56:01.104Z,990.2193
2022-09-12T09:57:01.246Z,990.3131
2022-09-12T09:58:00.370Z,990.2977
2022-09-12T09:59:00.494Z,990.1671
2022-09-12T10:00:00.635Z,990.1458
2022-09-12T10:01:00.846Z,990.1309
2022-09-12T10:02:01.011Z,990.0795
2022-09-12T10:03:01.134Z,990.0641
2022-09-12T10:04:01.211Z,990.1598
2022-09-12T10:05:00.363Z,989.9846
2022-09-12T10:06:00.542Z,990.0641
2022-09-12T10:07:00.658Z,990.0913
2022-09-12T10:08:00.827Z,990.0694
2022-09-12T10:09:00.987Z,990.0107
2022-09-12T10:10:01.131Z,990.0539
2022-09-12T10:11:00.302Z,990.0966
2022-09-12T10:12:00.424Z,990.0966
2022-09-12T10:13:00.570Z,990.1329
2022-09-12T10:14:00.729Z,990.0893
2022-09-12T10:15:00.871Z,989.877
2022-09-12T10:16:01.095Z,989.898
2022-09-12T10:17:01.198Z,990.1458
2022-09-12T10:18:00.319Z,990.0222
2022-09-12T10:19:00.473Z,989.984
2022-09-12T10:20:19.735Z,989.9966
2022-09-12T10:21:00.754Z,989.9153
2022-09-12T10:22:00.947Z,989.9212
2022-09-12T10:23:01.053Z,990.0888
2022-09-12T10:24:01.205Z,989.9718
2022-09-12T10:25:00.360Z,989.9054
2022-09-12T10:26:00.501Z,989.9195
2022-09-12T10:27:00.657Z,989.9636
2022-09-12T10:28:00.791Z,989.9718
2022-09-12T10:29:00.938Z,990.0373
2022-09-12T10:30:01.093Z,990.0072
2022-09-12T10:31:01.315Z,989.9628
2022-09-12T10:32:00.412Z,989.7943
2022-09-12T10:33:00.545Z,989.8508
2022-09-12T10:34:00.698Z,989.804
2022-09-12T10:35:00.836Z,990.0173
2022-09-12T10:36:01.007Z,989.9447
2022-09-12T10:37:01.129Z,989.8961
2022-09-12T10:38:00.263Z,989.8458
2022-09-12T10:39:00.406Z,989.8449
2022-09-12T10:40:00.603Z,989.8368
2022-09-12T10:41:00.720Z,989.7563
2022-09-12T10:42:00.859Z,989.866
2022-09-12T10:43:01.008Z,989.866
2022-09-12T10:44:01.146Z,989.7783
2022-09-12T10:45:00.295Z,989.8055
2022-09-12T10:46:00.536Z,989.7832
2022-09-12T10:47:00.602Z,990.0173
2022-09-12T10:48:05.455Z,989.7832
2022-09-12T10:49:00.868Z,990.0173
2022-09-12T10:50:01.030Z,989.8359
2022-09-12T10:51:01.167Z,989.8733
2022-09-12T10:52:00.315Z,989.8022
2022-09-12T10:53:00.468Z,989.8034
2022-09-12T10:54:00.648Z,989.6754
2022-09-12T10:55:00.811Z,989.7239
2022-09-12T10:56:00.902Z,989.8113
2022-09-12T10:57:01.090Z,989.8177
2022-09-12T10:58:01.187Z,989.7742
2022-09-12T10:59:00.325Z,989.9192
2022-09-12T11:00:00.479Z,989.8902
2022-09-12T11:01:00.626Z,989.8087
2022-09-12T11:02:00.858Z,989.866
2022-09-12T11:03:00.919Z,989.866
2022-09-12T11:04:01.062Z,989.8075
2022-09-12T11:05:01.211Z,989.8368
2022-09-12T11:06:00.357Z,989.7198
2022-09-12T11:07:00.538Z,989.7271
2022-09-12T11:08:00.651Z,989.9084
2022-09-12T11:09:00.805Z,989.6806
2022-09-12T11:10:00.950Z,989.7748
2022-09-12T11:11:01.102Z,989.6028
2022-09-12T11:12:01.271Z,989.747
2022-09-12T11:13:00.390Z,989.747
2022-09-12T11:14:00.542Z,989.7598
2022-09-12T11:15:00.693Z,989.675
2022-09-12T11:16:00.877Z,989.6235
2022-09-12T11:17:01.013Z,989.7013
2022-09-12T11:18:01.137Z,989.647
2022-09-12T11:19:00.273Z,989.6107
2022-09-12T11:20:00.435Z,989.5896
2022-09-12T11:21:00.584Z,989.8286
2022-09-12T11:22:00.757Z,989.7107
2022-09-12T11:23:00.881Z,989.6247
2022-09-12T11:24:01.041Z,989.7461
2022-09-12T11:25:01.195Z,989.7306
2022-09-12T11:26:00.347Z,989.6782
2022-09-12T11:27:00.528Z,989.6651
2022-09-12T11:28:00.661Z,989.5691
2022-09-12T11:29:00.802Z,989.6276
2022-09-12T11:30:00.945Z,989.7792
2022-09-12T11:31:01.201Z,989.6922
2022-09-12T11:32:01.270Z,989.5843
2022-09-12T11:33:00.417Z,989.577
2022-09-12T11:34:00.540Z,989.4965
2022-09-12T11:35:00.698Z,989.6054
2022-09-12T11:36:00.832Z,989.6346
2022-09-12T11:37:01.020Z,989.5691
2022-09-12T11:38:01.144Z,989.6185
2022-09-12T11:39:00.274Z,989.6771
2022-09-12T11:40:00.490Z,989.5319
2022-09-12T11:41:00.571Z,989.7034
2022-09-12T11:42:00.729Z,989.6539
2022-09-12T11:43:00.896Z,989.5872
2022-09-12T11:44:01.009Z,989.6785
2022-09-12T11:45:01.155Z,989.5792
2022-09-12T11:46:00.323Z,989.4993
2022-09-12T11:47:00.447Z,989.5795
2022-09-12T11:48:00.611Z,989.6925